createdAt,value
2023-02-08T00:00:06.688Z,84.47
2023-02-08T00:02:37.247Z,80.07
2023-02-08T00:05:03.973Z,79.47
2023-02-08T00:07:30.460Z,78.53
2023-02-08T00:09:57.068Z,98.75
2023-02-08T00:12:23.662Z,74.30
2023-02-08T00:14:50.341Z,84.43
2023-02-08T00:17:16.995Z,76.68
2023-02-08T00:19:43.571Z,87.55
2023-02-08T00:22:10.061Z,101.20
2023-02-08T00:24:36.646Z,87.53
2023-02-08T00:27:03.276Z,91.80
2023-02-08T00:29:29.867Z,90.25
2023-02-08T00:31:56.433Z,93.95
2023-02-08T00:34:23.173Z,83.53
2023-02-08T00:36:50.886Z,80.90
2023-02-08T00:39:17.575Z,98.30
2023-02-08T00:41:44.123Z,81.90
2023-02-08T00:44:10.715Z,85.80
2023-02-08T00:46:37.292Z,81.18
2023-02-08T00:49:03.999Z,111.20
2023-02-08T00:51:30.586Z,263.88
2023-02-08T00:53:57.239Z,421.63
2023-02-08T00:56:23.902Z,356.27
2023-02-08T00:58:51.504Z,360.80
2023-02-08T01:01:18.765Z,361.63
2023-02-08T01:03:45.530Z,243.80
2023-02-08T01:06:16.587Z,220.60
2023-02-08T01:08:44.789Z,221.77
2023-02-08T01:11:14.460Z,327.05
2023-02-08T01:13:41.675Z,397.65
2023-02-08T01:16:15.144Z,270.83
2023-02-08T01:18:43.578Z,241.57
2023-02-08T01:21:13.339Z,290.77
2023-02-08T01:23:40.979Z,263.00
2023-02-08T01:26:09.320Z,273.45
2023-02-08T01:28:36.737Z,311.83
2023-02-08T01:31:25.031Z,426.48
2023-02-08T01:33:52.061Z,462.13
2023-02-08T01:36:18.810Z,419.00
2023-02-08T01:38:45.767Z,453.80
2023-02-08T01:41:19.276Z,426.15
2023-02-08T01:44:07.591Z,401.13
2023-02-08T01:46:37.030Z,360.17
2023-02-08T01:49:10.980Z,380.63
2023-02-08T01:51:48.204Z,289.20
2023-02-08T01:54:17.388Z,313.80
2023-02-08T01:56:45.858Z,314.73
2023-02-08T01:59:20.762Z,289.88
2023-02-08T02:01:49.600Z,255.13
2023-02-08T02:04:16.597Z,258.60
2023-02-08T02:09:21.017Z,157.32
2023-02-08T02:11:49.820Z,132.32
2023-02-08T02:14:18.084Z,133.75
2023-02-08T02:16:46.284Z,148.20
2023-02-08T02:19:48.182Z,177.85
2023-02-08T02:22:31.353Z,155.27
2023-02-08T02:25:31.115Z,193.25
2023-02-08T02:28:22.937Z,155.35
2023-02-08T02:31:04.503Z,189.60
2023-02-08T02:36:08.822Z,195.70
2023-02-08T02:38:44.309Z,224.25
2023-02-08T02:41:49.980Z,224.43
2023-02-08T02:44:35.928Z,235.15
2023-02-08T02:47:12.900Z,231.98
2023-02-08T02:49:54.390Z,221.75
2023-02-08T02:52:46.123Z,219.68
2023-02-08T02:55:16.402Z,202.13
2023-02-08T02:57:46.926Z,174.50
2023-02-08T03:00:24.565Z,191.50
2023-02-08T03:02:52.029Z,205.38
2023-02-08T03:05:18.951Z,233.13
2023-02-08T03:08:15.793Z,220.52
2023-02-08T03:11:04.973Z,217.90
2023-02-08T03:13:37.526Z,238.02
2023-02-08T03:16:19.051Z,243.30
2023-02-08T03:19:05.837Z,206.93
2023-02-08T03:21:44.851Z,217.57
2023-02-08T03:24:26.647Z,231.25
2023-02-08T03:27:04.701Z,185.90
2023-02-08T03:29:55.783Z,260.08
2023-02-08T03:32:36.055Z,287.33
2023-02-08T03:35:08.474Z,231.95
2023-02-08T03:37:55.602Z,253.40
2023-02-08T03:40:41.861Z,228.98
2023-02-08T03:43:17.961Z,274.88
2023-02-08T03:46:16.943Z,285.55
2023-02-08T03:48:47.866Z,265.23
2023-02-08T03:51:15.551Z,230.35
2023-02-08T03:53:45.463Z,231.68
2023-02-08T03:56:18.829Z,200.93
2023-02-08T03:58:49.931Z,230.15
2023-02-08T04:01:27.217Z,260.08
2023-02-08T04:03:56.299Z,185.88
2023-02-08T04:06:23.554Z,185.23
2023-02-08T04:08:50.603Z,181.38
2023-02-08T04:11:17.494Z,189.20
2023-02-08T04:13:44.149Z,146.75
2023-02-08T04:16:12.613Z,135.80
2023-02-08T04:18:39.280Z,120.90
2023-02-08T04:21:06.048Z,115.07
2023-02-08T04:23:32.678Z,114.28
2023-02-08T04:25:59.176Z,127.70
2023-02-08T04:28:25.794Z,125.40
2023-02-08T04:30:55.109Z,128.27
2023-02-08T04:33:21.728Z,135.68
2023-02-08T04:35:48.212Z,128.80
2023-02-08T04:38:14.794Z,130.40
2023-02-08T04:40:41.611Z,132.05
2023-02-08T04:43:08.332Z,126.50
2023-02-08T04:45:34.877Z,124.20
2023-02-08T04:48:02.031Z,115.90
2023-02-08T04:50:28.616Z,112.88
2023-02-08T04:52:55.418Z,125.70
2023-02-08T04:55:22.232Z,123.75
2023-02-08T04:57:48.894Z,109.32
2023-02-08T05:00:16.026Z,109.72
2023-02-08T05:02:42.638Z,108.88
2023-02-08T05:05:09.317Z,99.95
2023-02-08T05:07:36.315Z,109.38
2023-02-08T05:10:04.974Z,110.75
2023-02-08T05:12:31.659Z,110.93
2023-02-08T05:14:58.203Z,100.45
2023-02-08T05:17:24.930Z,106.45
2023-02-08T05:19:51.450Z,101.47
2023-02-08T05:22:18.563Z,102.40
2023-02-08T05:24:45.149Z,97.95
2023-02-08T05:27:11.779Z,98.47
2023-02-08T05:29:38.371Z,100.07
2023-02-08T05:32:05.179Z,100.07
2023-02-08T05:34:31.721Z,103.35
2023-02-08T05:36:59.006Z,107.82
2023-02-08T05:39:25.638Z,115.43
2023-02-08T05:41:52.210Z,122.65
2023-02-08T05:44:18.935Z,106.30
2023-02-08T05:46:45.600Z,116.55
2023-02-08T05:49:12.219Z,101.70
2023-02-08T05:51:39.255Z,108.80
2023-02-08T05:54:05.792Z,95.18
2023-02-08T05:56:32.463Z,94.50
2023-02-08T05:59:02.709Z,105.72
2023-02-08T06:01:29.575Z,94.25
2023-02-08T06:03:56.192Z,113.72
2023-02-08T06:06:22.877Z,119.28
2023-02-08T06:08:49.672Z,111.60
2023-02-08T06:11:16.980Z,98.80
2023-02-08T06:13:43.522Z,101.85
2023-02-08T06:16:10.247Z,106.03
2023-02-08T06:18:36.961Z,109.15
2023-02-08T06:21:03.993Z,105.65
2023-02-08T06:23:30.776Z,113.93
2023-02-08T06:25:57.402Z,108.60
2023-02-08T06:28:24.049Z,108.13
2023-02-08T06:30:51.290Z,114.82
2023-02-08T06:33:18.820Z,104.43
2023-02-08T06:35:51.762Z,115.38
2023-02-08T06:38:20.089Z,105.65
2023-02-08T06:40:47.950Z,118.55
2023-02-08T06:43:15.294Z,107.25
2023-02-08T06:45:44.842Z,127.38
2023-02-08T06:48:11.499Z,147.18
2023-02-08T06:50:38.424Z,162.80
2023-02-08T06:53:05.446Z,150.13
2023-02-08T06:55:34.032Z,157.20
2023-02-08T06:58:00.681Z,188.55
2023-02-08T07:00:27.229Z,177.68
2023-02-08T07:02:53.835Z,153.05
2023-02-08T07:05:20.415Z,150.63
2023-02-08T07:07:48.707Z,152.80
2023-02-08T07:10:16.196Z,123.10
2023-02-08T07:12:42.804Z,113.93
2023-02-08T07:15:14.122Z,135.80
2023-02-08T07:17:40.746Z,131.40
2023-02-08T07:20:07.838Z,116.40
2023-02-08T07:22:34.445Z,123.63
2023-02-08T07:25:01.070Z,126.53
2023-02-08T07:27:27.970Z,114.80
2023-02-08T07:29:54.551Z,112.95
2023-02-08T07:32:21.201Z,127.57
2023-02-08T07:34:47.763Z,125.80
2023-02-08T07:37:15.022Z,112.88
2023-02-08T07:39:41.587Z,112.72
2023-02-08T07:42:09.950Z,126.57
2023-02-08T07:44:47.652Z,106.95
2023-02-08T07:47:14.208Z,114.40
2023-02-08T07:49:40.885Z,107.45
2023-02-08T07:52:07.702Z,107.05
2023-02-08T07:54:34.614Z,113.93
2023-02-08T07:57:03.379Z,123.78
2023-02-08T07:59:30.440Z,109.95
2023-02-08T08:01:57.079Z,115.20
2023-02-08T08:04:23.626Z,117.60
2023-02-08T08:06:51.485Z,110.55
2023-02-08T08:09:18.066Z,92.10
2023-02-08T08:11:44.909Z,95.45
2023-02-08T08:14:11.592Z,98.45
2023-02-08T08:16:38.277Z,111.10
2023-02-08T08:19:04.822Z,104.20
2023-02-08T08:21:31.566Z,104.30
2023-02-08T08:23:58.128Z,98.32
2023-02-08T08:26:24.746Z,90.00
2023-02-08T08:28:51.525Z,110.22
2023-02-08T08:31:21.990Z,106.30
2023-02-08T08:33:49.307Z,101.32
2023-02-08T08:36:16.359Z,81.95
2023-02-08T08:38:43.012Z,66.18
2023-02-08T08:41:17.116Z,61.03
2023-02-08T08:43:44.404Z,85.28
2023-02-08T08:46:11.206Z,99.85
2023-02-08T08:48:38.871Z,75.57
2023-02-08T08:51:06.618Z,71.70
2023-02-08T08:53:33.869Z,74.75
2023-02-08T08:56:00.754Z,73.40
2023-02-08T08:58:27.420Z,70.13
2023-02-08T09:00:57.356Z,69.85
2023-02-08T09:03:24.149Z,69.70
2023-02-08T09:05:51.667Z,62.17
2023-02-08T09:08:19.530Z,60.85
2023-02-08T09:10:46.112Z,55.15
2023-02-08T09:13:19.198Z,66.75
2023-02-08T09:15:46.328Z,93.20
2023-02-08T09:18:12.865Z,61.28
2023-02-08T09:20:39.550Z,74.32
2023-02-08T09:23:06.190Z,64.80
2023-02-08T09:25:33.304Z,66.78
2023-02-08T09:28:00.000Z,67.28
2023-02-08T09:30:26.715Z,65.65
2023-02-08T09:32:53.200Z,59.95
2023-02-08T09:35:19.741Z,113.32
2023-02-08T09:37:46.338Z,62.40
2023-02-08T09:40:22.667Z,65.80
2023-02-08T09:43:21.970Z,69.30
2023-02-08T09:46:19.714Z,73.57
2023-02-08T09:48:47.676Z,73.70
2023-02-08T09:51:23.771Z,68.57
2023-02-08T09:53:57.175Z,60.83
2023-02-08T09:56:32.905Z,70.90
2023-02-08T09:59:00.932Z,54.80
2023-02-08T10:01:34.842Z,56.28
2023-02-08T10:04:25.675Z,48.70
2023-02-08T10:06:52.235Z,41.40
2023-02-08T10:09:22.391Z,38.15
2023-02-08T10:12:11.025Z,32.22
2023-02-08T10:15:02.801Z,24.55
2023-02-08T10:17:42.459Z,29.77
2023-02-08T10:20:43.709Z,36.60
2023-02-08T10:23:38.635Z,39.13
2023-02-08T10:26:13.559Z,29.95
2023-02-08T10:29:12.364Z,36.72
2023-02-08T10:32:01.899Z,33.42
2023-02-08T10:34:50.144Z,29.30
2023-02-08T10:37:40.419Z,31.42
2023-02-08T10:40:24.969Z,31.98
2023-02-08T10:43:05.145Z,35.13
2023-02-08T10:46:01.205Z,37.40
2023-02-08T10:48:52.931Z,31.90
2023-02-08T10:51:21.809Z,35.80
2023-02-08T10:53:49.012Z,42.35
2023-02-08T10:56:28.036Z,36.65
2023-02-08T10:58:55.168Z,27.55
2023-02-08T11:01:22.254Z,20.45
2023-02-08T11:04:11.220Z,18.65
2023-02-08T11:06:40.411Z,25.33
2023-02-08T11:09:07.415Z,27.00
2023-02-08T11:11:37.977Z,39.63
2023-02-08T11:14:16.063Z,36.60
2023-02-08T11:16:48.998Z,36.85
2023-02-08T11:19:30.927Z,33.35
2023-02-08T11:21:58.992Z,38.80
2023-02-08T11:24:41.375Z,40.70
2023-02-08T11:29:45.536Z,41.65
2023-02-08T11:32:16.986Z,42.58
2023-02-08T11:34:43.617Z,42.22
2023-02-08T11:37:46.471Z,48.33
2023-02-08T11:40:21.055Z,37.92
2023-02-08T11:42:47.913Z,39.70
2023-02-08T11:45:23.442Z,48.13
2023-02-08T11:47:51.051Z,44.38
2023-02-08T11:50:27.015Z,38.17
2023-02-08T11:53:28.780Z,41.53
2023-02-08T11:56:20.158Z,45.53
2023-02-08T11:59:06.566Z,38.10
2023-02-08T12:01:39.186Z,35.42
2023-02-08T12:04:09.906Z,34.17
2023-02-08T12:07:10.371Z,36.38
2023-02-08T12:09:55.552Z,36.70
2023-02-08T12:12:30.474Z,36.90
2023-02-08T12:15:05.927Z,46.15
2023-02-08T12:17:42.592Z,35.22
2023-02-08T12:20:34.045Z,38.85
2023-02-08T12:23:09.732Z,41.70
2023-02-08T12:25:48.603Z,49.45
2023-02-08T12:28:33.796Z,44.40
2023-02-08T12:31:44.914Z,39.53
2023-02-08T12:34:45.045Z,40.05
2023-02-08T12:37:55.553Z,43.42
2023-02-08T12:40:49.705Z,41.03
2023-02-08T12:43:40.570Z,40.13
2023-02-08T12:46:25.909Z,38.88
2023-02-08T12:49:19.744Z,38.22
2023-02-08T12:52:16.646Z,34.92
2023-02-08T12:54:50.878Z,40.40
2023-02-08T12:57:22.321Z,34.72
2023-02-08T12:59:58.077Z,40.65
2023-02-08T13:02:33.345Z,42.65
2023-02-08T13:05:06.579Z,38.45
2023-02-08T13:07:41.964Z,41.53
2023-02-08T13:10:26.856Z,32.08
2023-02-08T13:13:07.124Z,38.20
2023-02-08T13:15:41.545Z,35.83
2023-02-08T13:18:22.484Z,38.55
2023-02-08T13:21:14.445Z,35.80
2023-02-08T13:23:52.473Z,33.15
2023-02-08T13:26:27.910Z,36.88
2023-02-08T13:28:58.396Z,37.95
2023-02-08T13:31:31.981Z,34.40
2023-02-08T13:34:08.398Z,42.45
2023-02-08T13:36:59.423Z,41.22
2023-02-08T13:39:40.484Z,28.02
2023-02-08T13:42:18.354Z,38.05
2023-02-08T13:44:57.698Z,44.83
2023-02-08T13:47:27.111Z,35.00
2023-02-08T13:50:00.805Z,35.63
2023-02-08T13:52:46.385Z,34.72
2023-02-08T13:55:32.702Z,28.98
2023-02-08T13:58:01.572Z,33.80
2023-02-08T14:00:33.190Z,47.20
2023-02-08T14:03:03.406Z,41.35
2023-02-08T14:05:44.212Z,41.42
2023-02-08T14:08:30.623Z,44.22
2023-02-08T14:11:20.169Z,45.55
2023-02-08T14:14:16.154Z,51.10
2023-02-08T14:17:07.175Z,38.28
2023-02-08T14:19:40.008Z,41.75
2023-02-08T14:22:18.740Z,34.35
2023-02-08T14:25:00.448Z,33.63
2023-02-08T14:27:28.614Z,35.03
2023-02-08T14:30:18.440Z,42.40
2023-02-08T14:32:48.572Z,37.95
2023-02-08T14:35:15.066Z,32.28
2023-02-08T14:37:44.311Z,35.30
2023-02-08T14:40:16.840Z,37.22
2023-02-08T14:42:58.511Z,33.97
2023-02-08T14:45:35.951Z,43.77
2023-02-08T14:48:23.917Z,30.30
2023-02-08T14:50:50.520Z,30.13
2023-02-08T14:53:37.234Z,28.35
2023-02-08T14:56:10.171Z,36.78
2023-02-08T14:58:41.038Z,39.47
2023-02-08T15:01:14.539Z,35.20
2023-02-08T15:03:42.587Z,44.53
2023-02-08T15:06:27.658Z,51.45
2023-02-08T15:08:58.508Z,54.28
2023-02-08T15:11:35.349Z,60.50
2023-02-08T15:14:05.030Z,51.47
2023-02-08T15:16:40.628Z,43.83
2023-02-08T15:19:09.827Z,53.85
2023-02-08T15:21:40.977Z,41.28
2023-02-08T15:24:16.711Z,47.42
2023-02-08T15:26:49.736Z,55.58
2023-02-08T15:29:20.555Z,53.13
2023-02-08T15:31:48.376Z,57.45
2023-02-08T15:34:17.773Z,83.70
2023-02-08T15:36:55.943Z,65.97
2023-02-08T15:39:38.506Z,58.10
2023-02-08T15:42:05.951Z,60.58
2023-02-08T15:44:34.898Z,60.10
2023-02-08T15:47:04.937Z,67.90
2023-02-08T15:49:35.912Z,67.10
2023-02-08T15:52:04.093Z,66.07
2023-02-08T15:54:30.798Z,431.77
2023-02-08T15:57:18.988Z,180.30
2023-02-08T15:59:48.051Z,149.85
2023-02-08T16:02:29.558Z,193.00
2023-02-08T16:04:57.188Z,953.07
2023-02-08T16:07:37.249Z,612.90
2023-02-08T16:10:06.051Z,311.75
2023-02-08T16:12:32.818Z,98.90
2023-02-08T16:14:59.537Z,253.52
2023-02-08T16:17:35.552Z,107.45
2023-02-08T16:20:02.388Z,66.13
2023-02-08T16:22:32.683Z,84.47
2023-02-08T16:25:41.901Z,70.43
2023-02-08T16:28:37.811Z,89.43
2023-02-08T16:31:05.573Z,476.20
2023-02-08T16:33:33.013Z,437.88
2023-02-08T16:36:03.199Z,456.77
2023-02-08T16:38:33.836Z,269.52
2023-02-08T16:41:12.166Z,72.20
2023-02-08T16:43:47.228Z,90.80
2023-02-08T16:46:21.415Z,257.95
2023-02-08T16:48:48.038Z,353.23
2023-02-08T16:51:34.182Z,459.30
2023-02-08T16:54:06.900Z,537.08
2023-02-08T16:56:37.179Z,740.63
2023-02-08T16:59:04.852Z,484.73
2023-02-08T17:01:31.921Z,468.60
2023-02-08T17:03:59.082Z,512.22
2023-02-08T17:06:32.946Z,519.17
2023-02-08T17:09:02.132Z,425.85
2023-02-08T17:11:29.375Z,317.92
2023-02-08T17:13:58.372Z,198.95
2023-02-08T17:16:27.619Z,129.18
2023-02-08T17:18:54.287Z,197.60
2023-02-08T17:21:21.139Z,171.43
2023-02-08T17:23:47.924Z,130.43
2023-02-08T17:26:27.333Z,103.63
2023-02-08T17:28:55.983Z,133.55
2023-02-08T17:31:24.033Z,178.10
2023-02-08T17:33:50.760Z,259.27
2023-02-08T17:36:17.973Z,372.23
2023-02-08T17:38:46.314Z,291.83
2023-02-08T17:41:18.030Z,402.55
2023-02-08T17:43:45.212Z,310.30
2023-02-08T17:46:15.972Z,146.35
2023-02-08T17:48:43.547Z,117.07
2023-02-08T17:51:13.617Z,98.85
2023-02-08T17:53:43.821Z,90.40
2023-02-08T17:56:23.335Z,79.03
2023-02-08T17:58:53.679Z,94.70
2023-02-08T18:01:24.480Z,81.78
2023-02-08T18:03:55.245Z,121.90
2023-02-08T18:06:26.087Z,93.80
2023-02-08T18:08:54.870Z,70.32
2023-02-08T18:11:23.428Z,71.35
2023-02-08T18:13:52.077Z,113.45
2023-02-08T18:16:24.918Z,99.88
2023-02-08T18:18:54.276Z,97.45
2023-02-08T18:21:24.212Z,92.25
2023-02-08T18:23:51.895Z,109.13
2023-02-08T18:26:21.029Z,105.20
2023-02-08T18:28:47.756Z,112.00
2023-02-08T18:31:19.911Z,144.63
2023-02-08T18:33:48.366Z,176.60
2023-02-08T18:36:16.113Z,132.23
2023-02-08T18:38:48.036Z,107.57
2023-02-08T18:41:21.293Z,133.52
2023-02-08T18:43:48.926Z,153.52
2023-02-08T18:46:18.781Z,132.75
2023-02-08T18:48:46.894Z,83.38
2023-02-08T18:51:18.600Z,88.60
2023-02-08T18:53:51.497Z,78.00
2023-02-08T18:56:24.043Z,66.40
2023-02-08T18:58:52.867Z,105.38
2023-02-08T19:01:22.953Z,167.43
2023-02-08T19:03:49.874Z,167.82
2023-02-08T19:06:22.309Z,169.50
2023-02-08T19:08:54.286Z,152.60
2023-02-08T19:11:22.341Z,200.88
2023-02-08T19:13:50.363Z,154.25
2023-02-08T19:16:18.173Z,152.38
2023-02-08T19:18:45.758Z,142.30
2023-02-08T19:21:15.098Z,119.88
2023-02-08T19:23:41.635Z,109.15
2023-02-08T19:26:14.590Z,112.28
2023-02-08T19:28:41.265Z,115.90
2023-02-08T19:31:10.818Z,98.50
2023-02-08T19:33:39.334Z,95.63
2023-02-08T19:36:08.968Z,100.72
2023-02-08T19:38:36.740Z,101.35
2023-02-08T19:41:05.021Z,95.72
2023-02-08T19:43:32.789Z,102.63
2023-02-08T19:45:59.950Z,101.40
2023-02-08T19:48:26.704Z,95.28
2023-02-08T19:51:00.669Z,82.03
2023-02-08T19:53:28.683Z,96.43
2023-02-08T19:55:55.689Z,101.53
2023-02-08T19:58:22.448Z,104.38
2023-02-08T20:00:49.204Z,156.68
2023-02-08T20:03:21.513Z,195.75
2023-02-08T20:05:49.778Z,339.05
2023-02-08T20:08:18.105Z,189.43
2023-02-08T20:10:47.451Z,158.20
2023-02-08T20:13:14.462Z,180.40
2023-02-08T20:15:42.919Z,208.52
2023-02-08T20:18:11.874Z,303.10
2023-02-08T20:20:38.882Z,244.60
2023-02-08T20:23:14.135Z,181.77
2023-02-08T20:25:44.438Z,198.18
2023-02-08T20:28:11.244Z,203.85
2023-02-08T20:30:40.838Z,159.13
2023-02-08T20:33:07.596Z,133.55
2023-02-08T20:35:41.793Z,126.20
2023-02-08T20:38:08.691Z,168.77
2023-02-08T20:40:37.903Z,148.52
2023-02-08T20:43:04.570Z,126.55
2023-02-08T20:45:34.234Z,93.80
2023-02-08T20:48:00.817Z,104.65
2023-02-08T20:50:27.926Z,88.13
2023-02-08T20:52:55.954Z,90.18
2023-02-08T20:55:25.210Z,81.15
2023-02-08T20:57:52.002Z,89.47
2023-02-08T21:00:26.004Z,132.73
2023-02-08T21:03:00.622Z,125.53
2023-02-08T21:05:29.280Z,163.13
2023-02-08T21:07:55.879Z,189.88
2023-02-08T21:10:22.425Z,182.55
2023-02-08T21:12:49.064Z,148.13
2023-02-08T21:15:15.737Z,132.90
2023-02-08T21:17:42.583Z,111.95
2023-02-08T21:20:09.764Z,165.88
2023-02-08T21:22:36.487Z,162.60
2023-02-08T21:25:03.307Z,158.48
2023-02-08T21:27:30.159Z,286.70
2023-02-08T21:29:56.830Z,257.73
2023-02-08T21:32:23.452Z,221.15
2023-02-08T21:34:50.992Z,161.40
2023-02-08T21:37:18.018Z,126.35
2023-02-08T21:39:46.546Z,121.05
2023-02-08T21:42:14.085Z,123.78
2023-02-08T21:44:40.689Z,309.20
2023-02-08T21:47:07.393Z,308.98
2023-02-08T21:49:52.412Z,257.48
2023-02-08T21:52:37.828Z,522.05
2023-02-08T21:55:04.698Z,816.10
2023-02-08T21:57:37.824Z,1091.15
2023-02-08T22:00:08.180Z,889.78
2023-02-08T22:02:54.885Z,662.40
2023-02-08T22:05:22.348Z,608.47
2023-02-08T22:07:57.282Z,342.85
2023-02-08T22:10:27.737Z,301.52
2023-02-08T22:12:56.155Z,323.42
2023-02-08T22:15:28.358Z,265.75
2023-02-08T22:20:23.535Z,136.82
2023-02-08T22:22:53.128Z,111.00
2023-02-08T22:25:21.640Z,183.37
2023-02-08T22:27:49.330Z,188.90
2023-02-08T22:30:17.741Z,230.23
2023-02-08T22:32:45.458Z,356.65
2023-02-08T22:35:12.918Z,275.50
2023-02-08T22:37:40.247Z,235.43
2023-02-08T22:40:07.621Z,237.15
2023-02-08T22:42:34.158Z,308.67
2023-02-08T22:45:00.915Z,256.17
2023-02-08T22:47:27.551Z,482.23
2023-02-08T22:49:57.390Z,260.20
2023-02-08T22:52:25.753Z,265.80
2023-02-08T22:54:52.464Z,171.93
2023-02-08T22:57:20.437Z,141.10
2023-02-08T22:59:47.765Z,153.02
2023-02-08T23:02:17.108Z,119.65
2023-02-08T23:04:43.782Z,96.50
2023-02-08T23:07:10.370Z,101.75
2023-02-08T23:09:37.012Z,132.82
2023-02-08T23:12:03.662Z,250.60
2023-02-08T23:14:30.440Z,322.75
2023-02-08T23:16:57.028Z,245.13
2023-02-08T23:19:23.955Z,286.92
2023-02-08T23:21:50.906Z,267.88
2023-02-08T23:24:17.501Z,180.40
2023-02-08T23:26:44.031Z,134.25
2023-02-08T23:29:10.739Z,112.10
2023-02-08T23:31:40.536Z,138.30
2023-02-08T23:34:07.366Z,223.25
2023-02-08T23:36:33.982Z,213.23
2023-02-08T23:39:00.831Z,205.82
2023-02-08T23:41:27.451Z,210.02
2023-02-08T23:43:54.061Z,329.80
2023-02-08T23:46:25.988Z,387.33
2023-02-08T23:48:52.728Z,385.08
2023-02-08T23:51:21.610Z,423.55
2023-02-08T23:53:49.142Z,542.25
2023-02-08T23:56:17.224Z,326.35
2023-02-08T23:58:45.915Z,278.93
